EQY weather

Charlotte-Monroe Executive Airport
Monroe, North Carolina, United States

Public forecast

Using degrees Fahrenheit for public forecast. Weather courtesy of forecast.io.

METAR (pilot weather report)

Retrieved 2018/12/13 04:53 UTC (34 minutes ago):

KEQY 130453Z AUTO VRB05KT 10SM CLR 03/M01 A3019 RMK AO2 SLP239 T00331006 401001017

TAF (pilot weather forecast)

Forecast is more than 12 hours old.

Closest forecast is Charlotte Douglas International Airport, 19.7 nm (36.5 km) NW. Retrieved 2018/12/12 00:24 UTC (1 day ago):

TAF KCLT 122322Z 1300/1406 18002KT P6SM OVC200 FM131600 17005KT P6SM OVC150 FM140000 08004KT P6SM OVC060 PROB30 1404/1406 -SHRA